We konden geen weer-waarchuwingen ophalen. Ga rechtstreeks naar de Meteoalarm site : www.meteoalarm.eu en controleer daar .



Bezoek ook deze websites:

Template documentation
and downloads

And another site



METAR rapporten vliegvelden

   
EHVK - Volkel Rnlafb, Netherlands
Afstand tot: ZW 18 km
Gewijzigd: 28-05-2024 00:25
Lichte (mot)regen, Grotendeels bewolkt  
Lichte (mot)regen, Grotendeels bewolkt  
   Wind: ZW 11.1 km/h
Wind: ZW 11.1 km/h
Temperatuur: 12°C
Dauwpunt: 12°C
Vochtigheid: 100%
Barometer: 1017 hPa
Bewolking: Grotendeels bewolkt
Zicht: meer dan 10 km
Bewolking: Licht bewolkt 800 ft,
Grotendeels bewolkt 1100 ft,
Licht bewolkt 1500 ft,
Grotendeels bewolkt 4800 ft
EHVK 272225Z AUTO 23006KT 9999 -DZ FEW008 BKN011 FEW015CB BKN048 12/12 Q1017 GRN
EDLV - Niederrhein, Germany
Afstand tot: ZO 25 km
Gewijzigd: 28-05-2024 00:20
Bewolking  
Bewolking  
   Wind: ZZO 7.4 km/h
Wind: ZZO 7.4 km/h
Temperatuur: 13°C
Dauwpunt: 12°C
Vochtigheid: 94%
Barometer: 1017 hPa
Bewolking: Bewolking
Zicht: 8 km
Bewolking: Gedeeltelijk bewolkt 1400 ft,
Grotendeels bewolkt 1600 ft,
Bewolking 6700 ft
EDLV 272220Z AUTO 15004KT 8000 // SCT014/// BKN016/// OVC067/// 13/12 Q1017
EHDL - Deelen Rnlafb, Netherlands
Afstand tot: N 35 km
Gewijzigd: 28-05-2024 00:25
Bewolking  
Bewolking  
   Wind: ZZO 3.7 km/h
Wind: ZZO 3.7 km/h
Temperatuur: 12°C
Dauwpunt: 11°C
Vochtigheid: 94%
Barometer: 1017 hPa
Bewolking: Bewolking
Zicht: meer dan 10 km
Bewolking: Licht bewolkt 3600 ft,
Grotendeels bewolkt 4500 ft,
Bewolking 5000 ft
EHDL 272225Z AUTO 15002KT 9999 FEW036 BKN045 OVC050 12/11 Q1017 BLU
EHEH - Eindhoven Rnlafb, Netherlands
Afstand tot: ZW 48 km
Gewijzigd: 28-05-2024 00:25
Regen, Bewolking  
Regen, Bewolking  
   Wind: Zuiden 7.4 km/h
Wind: Zuiden 7.4 km/h
Temperatuur: 11°C
Dauwpunt: 11°C
Vochtigheid: 100%
Barometer: 1018 hPa
Bewolking: Bewolking
Zicht: 7 km
Bewolking: Licht bewolkt 1500 ft,
Grotendeels bewolkt 4900 ft,
Grotendeels bewolkt 5400 ft,
Bewolking 6400 ft
EHEH 272225Z AUTO 19004KT 170V230 7000 RA FEW015CB BKN049 BKN054 OVC064 11/11 Q1018 WHT
EHGR - Gilze-Rijen Rnla, Netherlands
Afstand tot: WZW 70 km
Gewijzigd: 28-05-2024 00:25
Bewolking  
Bewolking  
   Wind: ZZW 11.1 km/h
Wind: ZZW 11.1 km/h
Temperatuur: 12°C
Dauwpunt: 11°C
Vochtigheid: 94%
Barometer: 1017 hPa
Bewolking: Bewolking
Zicht: meer dan 10 km
Bewolking: Licht bewolkt 1500 ft,
Grotendeels bewolkt 2000 ft,
Bewolking 2400 ft
EHGR 272225Z AUTO 20006KT 150V240 9999 FEW015CB BKN020 OVC024 12/11 Q1017 WHT
EBBL - Kleine-Brogel(Ba, Belgium
Afstand tot: ZZW 71 km
Gewijzigd: 27-05-2024 23:55
Bewolking  
Bewolking  
   Wind: varieert 1.9 km/h
Wind: varieert 1.9 km/h
Temperatuur: 11°C
Dauwpunt: 10°C
Vochtigheid: 94%
Barometer: 1018 hPa
Bewolking: Bewolking
Zicht: meer dan 10 km
Bewolking: Gedeeltelijk bewolkt 3000 ft,
Bewolking 3700 ft
EBBL 272155Z VRB01KT 9999 SCT030 OVC037 11/10 Q1018 BLU BLU TEMPO WHT

Script ontwikkeld door  Saratoga-weather.org Aangepast voor de template door  Weerstation Leuven

U vindt ons ook hier:

Het Weer Aktueel

UK Metoffice

WeatherCloud

Weather Underground

AWEKAS

HAMweather, WeatherForYou, PWS Weather

Apparatuur in gebruik:

Weerstation
Davis Vantage Vue

Weerprogramma
Meteobridge

Davis Vantage Vue

Meteobridge